sensor_id;sensor_type;location;lat;lon;timestamp;temperature;humidity
37310;DHT22;23195;47.744;7.358;2022-08-06T00:00:14;22.00;99.90
37310;DHT22;23195;47.744;7.358;2022-08-06T00:02:35;22.10;99.90
37310;DHT22;23195;47.744;7.358;2022-08-06T00:05:03;22.10;99.90
37310;DHT22;23195;47.744;7.358;2022-08-06T00:07:38;21.80;99.90
37310;DHT22;23195;47.744;7.358;2022-08-06T00:13:10;22.10;99.90
37310;DHT22;23195;47.744;7.358;2022-08-06T00:15:43;21.60;99.90
37310;DHT22;23195;47.744;7.358;2022-08-06T00:18:15;21.60;99.90
37310;DHT22;23195;47.744;7.358;2022-08-06T00:21:08;21.70;99.90
37310;DHT22;23195;47.744;7.358;2022-08-06T00:23:46;21.60;99.90
37310;DHT22;23195;47.744;7.358;2022-08-06T00:26:23;21.60;99.90
37310;DHT22;23195;47.744;7.358;2022-08-06T00:28:55;21.50;99.90
37310;DHT22;23195;47.744;7.358;2022-08-06T00:31:36;21.50;99.90
37310;DHT22;23195;47.744;7.358;2022-08-06T00:34:04;21.40;99.90
37310;DHT22;23195;47.744;7.358;2022-08-06T00:36:34;21.40;99.90
37310;DHT22;23195;47.744;7.358;2022-08-06T00:39:25;21.30;99.90
37310;DHT22;23195;47.744;7.358;2022-08-06T00:42:17;21.30;99.90
37310;DHT22;23195;47.744;7.358;2022-08-06T00:44:49;20.80;99.90
37310;DHT22;23195;47.744;7.358;2022-08-06T00:47:32;21.30;99.90
37310;DHT22;23195;47.744;7.358;2022-08-06T00:50:07;21.20;99.90
37310;DHT22;23195;47.744;7.358;2022-08-06T00:52:45;21.20;99.90
37310;DHT22;23195;47.744;7.358;2022-08-06T00:55:14;21.20;99.90
37310;DHT22;23195;47.744;7.358;2022-08-06T00:57:50;21.20;99.90
37310;DHT22;23195;47.744;7.358;2022-08-06T01:00:19;21.10;99.90
37310;DHT22;23195;47.744;7.358;2022-08-06T01:02:48;21.10;99.90
37310;DHT22;23195;47.744;7.358;2022-08-06T01:05:14;21.10;99.90
37310;DHT22;23195;47.744;7.358;2022-08-06T01:08:03;21.10;99.90
37310;DHT22;23195;47.744;7.358;2022-08-06T01:10:34;21.00;99.90
37310;DHT22;23195;47.744;7.358;2022-08-06T01:13:00;21.00;99.90
37310;DHT22;23195;47.744;7.358;2022-08-06T01:15:42;20.90;99.90
37310;DHT22;23195;47.744;7.358;2022-08-06T01:18:27;21.60;99.90
37310;DHT22;23195;47.744;7.358;2022-08-06T01:22:24;21.10;99.90
37310;DHT22;23195;47.744;7.358;2022-08-06T01:24:33;19.60;99.90
37310;DHT22;23195;47.744;7.358;2022-08-06T01:30:16;20.90;99.90
37310;DHT22;23195;47.744;7.358;2022-08-06T01:32:56;20.90;99.90
37310;DHT22;23195;47.744;7.358;2022-08-06T01:35:29;20.90;99.90
37310;DHT22;23195;47.744;7.358;2022-08-06T01:38:05;20.90;99.90
37310;DHT22;23195;47.744;7.358;2022-08-06T01:40:37;21.00;99.90
37310;DHT22;23195;47.744;7.358;2022-08-06T01:43:19;20.90;99.90
37310;DHT22;23195;47.744;7.358;2022-08-06T01:45:53;20.90;99.90
37310;DHT22;23195;47.744;7.358;2022-08-06T01:48:33;20.90;99.90
37310;DHT22;23195;47.744;7.358;2022-08-06T01:54:37;20.70;99.90
37310;DHT22;23195;47.744;7.358;2022-08-06T01:57:13;20.80;99.90
37310;DHT22;23195;47.744;7.358;2022-08-06T01:59:59;20.80;99.90
37310;DHT22;23195;47.744;7.358;2022-08-06T02:02:42;20.70;99.90
37310;DHT22;23195;47.744;7.358;2022-08-06T02:05:16;20.70;99.90
37310;DHT22;23195;47.744;7.358;2022-08-06T02:08:04;20.60;99.90
37310;DHT22;23195;47.744;7.358;2022-08-06T02:10:47;20.30;99.90
37310;DHT22;23195;47.744;7.358;2022-08-06T02:13:17;20.50;99.90
37310;DHT22;23195;47.744;7.358;2022-08-06T02:15:46;20.50;99.90
37310;DHT22;23195;47.744;7.358;2022-08-06T02:18:16;20.50;99.90
37310;DHT22;23195;47.744;7.358;2022-08-06T02:24:21;20.40;99.90
37310;DHT22;23195;47.744;7.358;2022-08-06T02:27:05;20.60;99.90
37310;DHT22;23195;47.744;7.358;2022-08-06T02:30:07;20.50;99.90
37310;DHT22;23195;47.744;7.358;2022-08-06T02:32:43;20.50;99.90
37310;DHT22;23195;47.744;7.358;2022-08-06T02:35:18;20.50;99.90
37310;DHT22;23195;47.744;7.358;2022-08-06T02:38:07;21.00;99.90
37310;DHT22;23195;47.744;7.358;2022-08-06T02:41:12;20.40;99.90
37310;DHT22;23195;47.744;7.358;2022-08-06T02:43:59;20.60;99.90
37310;DHT22;23195;47.744;7.358;2022-08-06T02:46:57;19.70;99.90
37310;DHT22;23195;47.744;7.358;2022-08-06T02:49:34;20.70;99.90
37310;DHT22;23195;47.744;7.358;2022-08-06T02:52:46;20.60;99.90
37310;DHT22;23195;47.744;7.358;2022-08-06T02:55:37;20.40;99.90
37310;DHT22;23195;47.744;7.358;2022-08-06T02:58:37;20.50;99.90
37310;DHT22;23195;47.744;7.358;2022-08-06T03:01:14;20.40;99.90
37310;DHT22;23195;47.744;7.358;2022-08-06T03:03:49;20.50;99.90
37310;DHT22;23195;47.744;7.358;2022-08-06T03:06:42;20.20;99.90
37310;DHT22;23195;47.744;7.358;2022-08-06T03:09:11;20.40;99.90
37310;DHT22;23195;47.744;7.358;2022-08-06T03:11:46;20.30;99.90
37310;DHT22;23195;47.744;7.358;2022-08-06T03:14:22;20.30;99.90
37310;DHT22;23195;47.744;7.358;2022-08-06T03:16:58;20.30;99.90
37310;DHT22;23195;47.744;7.358;2022-08-06T03:19:38;20.30;99.90
37310;DHT22;23195;47.744;7.358;2022-08-06T03:22:05;20.30;99.90
37310;DHT22;23195;47.744;7.358;2022-08-06T03:24:45;20.20;99.90
37310;DHT22;23195;47.744;7.358;2022-08-06T03:27:15;20.10;99.90
37310;DHT22;23195;47.744;7.358;2022-08-06T03:29:50;20.20;99.90
37310;DHT22;23195;47.744;7.358;2022-08-06T03:32:19;20.00;99.90
37310;DHT22;23195;47.744;7.358;2022-08-06T03:34:55;20.00;99.90
37310;DHT22;23195;47.744;7.358;2022-08-06T03:37:27;20.00;99.90
37310;DHT22;23195;47.744;7.358;2022-08-06T03:39:57;20.00;99.90
37310;DHT22;23195;47.744;7.358;2022-08-06T03:45:13;19.70;99.90
37310;DHT22;23195;47.744;7.358;2022-08-06T03:48:23;20.00;99.90
37310;DHT22;23195;47.744;7.358;2022-08-06T03:50:58;19.90;99.90
37310;DHT22;23195;47.744;7.358;2022-08-06T03:54:14;19.90;99.90
37310;DHT22;23195;47.744;7.358;2022-08-06T03:56:54;19.80;99.90
37310;DHT22;23195;47.744;7.358;2022-08-06T03:59:26;19.90;99.90
37310;DHT22;23195;47.744;7.358;2022-08-06T04:02:07;19.80;99.90
37310;DHT22;23195;47.744;7.358;2022-08-06T04:04:51;19.80;99.90
37310;DHT22;23195;47.744;7.358;2022-08-06T04:10:50;19.80;99.90
37310;DHT22;23195;47.744;7.358;2022-08-06T04:13:28;19.80;99.90
37310;DHT22;23195;47.744;7.358;2022-08-06T04:18:48;19.80;99.90
37310;DHT22;23195;47.744;7.358;2022-08-06T04:21:18;19.70;99.90
37310;DHT22;23195;47.744;7.358;2022-08-06T04:24:01;19.70;99.90
37310;DHT22;23195;47.744;7.358;2022-08-06T04:26:30;19.70;99.90
37310;DHT22;23195;47.744;7.358;2022-08-06T04:29:18;19.70;99.90
37310;DHT22;23195;47.744;7.358;2022-08-06T04:31:50;19.80;99.90
37310;DHT22;23195;47.744;7.358;2022-08-06T04:34:25;19.70;99.90
37310;DHT22;23195;47.744;7.358;2022-08-06T04:36:59;19.70;99.90
37310;DHT22;23195;47.744;7.358;2022-08-06T04:39:26;19.70;99.90
37310;DHT22;23195;47.744;7.358;2022-08-06T04:42:06;19.60;99.90
37310;DHT22;23195;47.744;7.358;2022-08-06T04:44:53;19.70;99.90
37310;DHT22;23195;47.744;7.358;2022-08-06T04:47:19;19.60;99.90
37310;DHT22;23195;47.744;7.358;2022-08-06T04:49:48;19.50;99.90
37310;DHT22;23195;47.744;7.358;2022-08-06T04:52:40;19.80;99.90
37310;DHT22;23195;47.744;7.358;2022-08-06T04:55:09;19.40;99.90
37310;DHT22;23195;47.744;7.358;2022-08-06T04:57:38;19.50;99.90
37310;DHT22;23195;47.744;7.358;2022-08-06T05:00:10;19.40;99.90
37310;DHT22;23195;47.744;7.358;2022-08-06T05:02:54;19.40;99.90
37310;DHT22;23195;47.744;7.358;2022-08-06T05:05:27;19.30;99.90
37310;DHT22;23195;47.744;7.358;2022-08-06T05:08:20;19.70;99.90
37310;DHT22;23195;47.744;7.358;2022-08-06T05:10:54;19.40;99.90
37310;DHT22;23195;47.744;7.358;2022-08-06T05:13:22;19.40;99.90
37310;DHT22;23195;47.744;7.358;2022-08-06T05:15:56;19.30;99.90
37310;DHT22;23195;47.744;7.358;2022-08-06T05:18:57;19.30;99.90
37310;DHT22;23195;47.744;7.358;2022-08-06T05:21:29;19.30;99.90
37310;DHT22;23195;47.744;7.358;2022-08-06T05:24:15;19.30;99.90
37310;DHT22;23195;47.744;7.358;2022-08-06T05:27:04;19.30;99.90
37310;DHT22;23195;47.744;7.358;2022-08-06T05:29:32;19.20;99.90
37310;DHT22;23195;47.744;7.358;2022-08-06T05:32:02;19.20;99.90
37310;DHT22;23195;47.744;7.358;2022-08-06T05:34:36;19.30;99.90
37310;DHT22;23195;47.744;7.358;2022-08-06T05:37:21;19.20;99.90
37310;DHT22;23195;47.744;7.358;2022-08-06T05:39:47;19.30;99.90
37310;DHT22;23195;47.744;7.358;2022-08-06T05:42:13;19.20;99.90
37310;DHT22;23195;47.744;7.358;2022-08-06T05:44:41;19.20;99.90
37310;DHT22;23195;47.744;7.358;2022-08-06T05:47:20;19.20;99.90
37310;DHT22;23195;47.744;7.358;2022-08-06T05:49:58;19.10;99.90
37310;DHT22;23195;47.744;7.358;2022-08-06T05:58:31;19.20;99.90
37310;DHT22;23195;47.744;7.358;2022-08-06T06:01:12;19.30;99.90
37310;DHT22;23195;47.744;7.358;2022-08-06T06:03:47;19.20;99.90
37310;DHT22;23195;47.744;7.358;2022-08-06T06:06:16;19.60;99.90
37310;DHT22;23195;47.744;7.358;2022-08-06T06:11:43;19.40;99.90
37310;DHT22;23195;47.744;7.358;2022-08-06T06:14:42;19.30;99.90
37310;DHT22;23195;47.744;7.358;2022-08-06T06:29:04;19.50;99.90
37310;DHT22;23195;47.744;7.358;2022-08-06T06:31:54;19.40;99.90
37310;DHT22;23195;47.744;7.358;2022-08-06T06:34:50;19.20;99.90
37310;DHT22;23195;47.744;7.358;2022-08-06T06:37:43;19.40;99.90
37310;DHT22;23195;47.744;7.358;2022-08-06T06:49:18;19.70;99.90
37310;DHT22;23195;47.744;7.358;2022-08-06T06:51:58;19.70;99.90
37310;DHT22;23195;47.744;7.358;2022-08-06T06:54:40;19.80;99.90
37310;DHT22;23195;47.744;7.358;2022-08-06T06:57:11;20.00;99.90
37310;DHT22;23195;47.744;7.358;2022-08-06T06:59:43;20.30;99.90
37310;DHT22;23195;47.744;7.358;2022-08-06T07:02:21;20.50;99.90
37310;DHT22;23195;47.744;7.358;2022-08-06T07:04:51;20.60;99.90
37310;DHT22;23195;47.744;7.358;2022-08-06T07:07:19;20.70;99.90
37310;DHT22;23195;47.744;7.358;2022-08-06T07:09:46;20.80;99.90
37310;DHT22;23195;47.744;7.358;2022-08-06T07:12:19;21.10;99.90
37310;DHT22;23195;47.744;7.358;2022-08-06T07:14:53;21.50;99.90
37310;DHT22;23195;47.744;7.358;2022-08-06T07:17:21;21.50;99.90
37310;DHT22;23195;47.744;7.358;2022-08-06T07:19:49;21.20;99.90
37310;DHT22;23195;47.744;7.358;2022-08-06T07:22:16;21.00;99.90
37310;DHT22;23195;47.744;7.358;2022-08-06T07:24:48;20.90;99.90
37310;DHT22;23195;47.744;7.358;2022-08-06T07:27:41;20.80;99.90
37310;DHT22;23195;47.744;7.358;2022-08-06T07:30:12;20.80;99.90
37310;DHT22;23195;47.744;7.358;2022-08-06T07:32:43;21.10;99.90
37310;DHT22;23195;47.744;7.358;2022-08-06T07:35:13;21.70;99.90
37310;DHT22;23195;47.744;7.358;2022-08-06T07:38:02;22.70;99.90
37310;DHT22;23195;47.744;7.358;2022-08-06T07:40:37;23.10;99.90
37310;DHT22;23195;47.744;7.358;2022-08-06T07:43:12;23.30;99.90
37310;DHT22;23195;47.744;7.358;2022-08-06T07:45:42;23.20;99.90
37310;DHT22;23195;47.744;7.358;2022-08-06T07:48:10;23.00;99.90
37310;DHT22;23195;47.744;7.358;2022-08-06T07:50:44;22.90;99.90
37310;DHT22;23195;47.744;7.358;2022-08-06T07:53:12;22.40;99.90
37310;DHT22;23195;47.744;7.358;2022-08-06T07:55:39;22.20;99.90
37310;DHT22;23195;47.744;7.358;2022-08-06T07:58:05;21.90;99.90
37310;DHT22;23195;47.744;7.358;2022-08-06T08:00:32;22.00;99.90
37310;DHT22;23195;47.744;7.358;2022-08-06T08:02:59;22.10;99.90
37310;DHT22;23195;47.744;7.358;2022-08-06T08:05:45;22.20;99.90
37310;DHT22;23195;47.744;7.358;2022-08-06T08:08:30;22.30;99.90
37310;DHT22;23195;47.744;7.358;2022-08-06T08:10:56;22.10;99.90
37310;DHT22;23195;47.744;7.358;2022-08-06T08:13:23;22.00;99.90
37310;DHT22;23195;47.744;7.358;2022-08-06T08:15:49;22.10;99.90
37310;DHT22;23195;47.744;7.358;2022-08-06T08:18:15;22.20;99.90
37310;DHT22;23195;47.744;7.358;2022-08-06T08:20:44;22.20;99.90
37310;DHT22;23195;47.744;7.358;2022-08-06T08:23:12;22.30;99.90
37310;DHT22;23195;47.744;7.358;2022-08-06T08:25:39;22.50;99.90
37310;DHT22;23195;47.744;7.358;2022-08-06T08:28:06;22.70;99.90
37310;DHT22;23195;47.744;7.358;2022-08-06T08:30:32;23.30;99.90
37310;DHT22;23195;47.744;7.358;2022-08-06T08:32:58;23.90;99.90
37310;DHT22;23195;47.744;7.358;2022-08-06T08:35:24;23.80;99.90
37310;DHT22;23195;47.744;7.358;2022-08-06T08:37:50;23.50;99.90
37310;DHT22;23195;47.744;7.358;2022-08-06T08:40:16;23.50;99.90
37310;DHT22;23195;47.744;7.358;2022-08-06T08:42:51;23.40;99.90
37310;DHT22;23195;47.744;7.358;2022-08-06T08:45:32;23.20;99.90
37310;DHT22;23195;47.744;7.358;2022-08-06T08:48:07;23.30;99.90
37310;DHT22;23195;47.744;7.358;2022-08-06T08:50:45;23.30;99.90
37310;DHT22;23195;47.744;7.358;2022-08-06T08:53:14;23.50;99.90
37310;DHT22;23195;47.744;7.358;2022-08-06T08:55:49;23.90;99.90
37310;DHT22;23195;47.744;7.358;2022-08-06T08:58:15;24.20;99.90
37310;DHT22;23195;47.744;7.358;2022-08-06T09:00:50;24.10;99.90
37310;DHT22;23195;47.744;7.358;2022-08-06T09:03:16;23.80;99.90
37310;DHT22;23195;47.744;7.358;2022-08-06T09:05:42;23.60;99.90
37310;DHT22;23195;47.744;7.358;2022-08-06T09:08:10;23.70;99.90
37310;DHT22;23195;47.744;7.358;2022-08-06T09:10:37;23.60;99.90
37310;DHT22;23195;47.744;7.358;2022-08-06T09:13:06;23.90;99.90
37310;DHT22;23195;47.744;7.358;2022-08-06T09:15:32;24.00;99.90
37310;DHT22;23195;47.744;7.358;2022-08-06T09:18:09;23.90;99.90
37310;DHT22;23195;47.744;7.358;2022-08-06T09:21:04;24.10;99.90
37310;DHT22;23195;47.744;7.358;2022-08-06T09:23:37;24.20;99.90
37310;DHT22;23195;47.744;7.358;2022-08-06T09:26:16;24.20;99.90
37310;DHT22;23195;47.744;7.358;2022-08-06T09:32:09;24.20;99.90
37310;DHT22;23195;47.744;7.358;2022-08-06T09:34:39;24.30;99.90
37310;DHT22;23195;47.744;7.358;2022-08-06T09:37:36;24.50;99.90
37310;DHT22;23195;47.744;7.358;2022-08-06T09:40:12;24.40;99.90
37310;DHT22;23195;47.744;7.358;2022-08-06T09:42:49;24.30;99.90
37310;DHT22;23195;47.744;7.358;2022-08-06T09:45:21;24.00;99.90
37310;DHT22;23195;47.744;7.358;2022-08-06T09:48:02;24.00;99.90
37310;DHT22;23195;47.744;7.358;2022-08-06T09:50:38;24.10;99.90
37310;DHT22;23195;47.744;7.358;2022-08-06T09:53:07;24.10;99.90
37310;DHT22;23195;47.744;7.358;2022-08-06T09:55:44;24.00;99.90
37310;DHT22;23195;47.744;7.358;2022-08-06T09:58:12;23.70;99.90
37310;DHT22;23195;47.744;7.358;2022-08-06T10:00:38;23.90;99.90
37310;DHT22;23195;47.744;7.358;2022-08-06T10:03:06;23.80;99.90
37310;DHT22;23195;47.744;7.358;2022-08-06T10:05:38;23.90;99.90
37310;DHT22;23195;47.744;7.358;2022-08-06T10:08:12;22.80;99.90
37310;DHT22;23195;47.744;7.358;2022-08-06T10:10:48;24.00;99.90
37310;DHT22;23195;47.744;7.358;2022-08-06T10:13:27;24.10;99.90
37310;DHT22;23195;47.744;7.358;2022-08-06T10:15:55;24.10;99.90
37310;DHT22;23195;47.744;7.358;2022-08-06T10:18:41;24.10;99.90
37310;DHT22;23195;47.744;7.358;2022-08-06T10:21:15;24.20;99.90
37310;DHT22;23195;47.744;7.358;2022-08-06T10:23:47;24.20;99.90
37310;DHT22;23195;47.744;7.358;2022-08-06T10:26:17;24.20;99.90
37310;DHT22;23195;47.744;7.358;2022-08-06T10:28:48;24.50;99.90
37310;DHT22;23195;47.744;7.358;2022-08-06T10:31:18;24.10;99.90
37310;DHT22;23195;47.744;7.358;2022-08-06T10:34:09;24.20;99.90
37310;DHT22;23195;47.744;7.358;2022-08-06T10:36:43;24.00;99.90
37310;DHT22;23195;47.744;7.358;2022-08-06T10:39:13;23.70;99.90
37310;DHT22;23195;47.744;7.358;2022-08-06T10:41:46;24.10;99.90
37310;DHT22;23195;47.744;7.358;2022-08-06T10:44:15;24.20;99.90
37310;DHT22;23195;47.744;7.358;2022-08-06T10:46:44;24.20;99.90
37310;DHT22;23195;47.744;7.358;2022-08-06T10:49:10;24.10;99.90
37310;DHT22;23195;47.744;7.358;2022-08-06T10:51:43;24.20;99.90
37310;DHT22;23195;47.744;7.358;2022-08-06T10:54:15;24.20;99.90
37310;DHT22;23195;47.744;7.358;2022-08-06T10:56:57;24.40;99.90
37310;DHT22;23195;47.744;7.358;2022-08-06T10:59:23;24.10;99.80
37310;DHT22;23195;47.744;7.358;2022-08-06T11:04:56;24.40;99.90
37310;DHT22;23195;47.744;7.358;2022-08-06T11:10:32;24.60;99.10
37310;DHT22;23195;47.744;7.358;2022-08-06T11:16:30;24.60;98.80
37310;DHT22;23195;47.744;7.358;2022-08-06T11:19:13;24.80;98.40
37310;DHT22;23195;47.744;7.358;2022-08-06T11:22:01;24.80;98.10
37310;DHT22;23195;47.744;7.358;2022-08-06T11:24:48;24.70;98.20
37310;DHT22;23195;47.744;7.358;2022-08-06T11:27:56;24.90;98.40
37310;DHT22;23195;47.744;7.358;2022-08-06T11:33:21;25.10;97.30
37310;DHT22;23195;47.744;7.358;2022-08-06T11:36:23;25.30;96.90
37310;DHT22;23195;47.744;7.358;2022-08-06T11:38:59;25.60;96.90
37310;DHT22;23195;47.744;7.358;2022-08-06T11:41:30;25.40;96.90
37310;DHT22;23195;47.744;7.358;2022-08-06T11:46:30;25.30;96.60
37310;DHT22;23195;47.744;7.358;2022-08-06T11:51:54;25.60;95.70
37310;DHT22;23195;47.744;7.358;2022-08-06T11:54:59;25.40;95.70
37310;DHT22;23195;47.744;7.358;2022-08-06T11:57:41;25.40;95.50
37310;DHT22;23195;47.744;7.358;2022-08-06T12:03:42;25.70;95.30
37310;DHT22;23195;47.744;7.358;2022-08-06T12:06:25;25.70;95.40
37310;DHT22;23195;47.744;7.358;2022-08-06T12:09:09;25.80;94.80
37310;DHT22;23195;47.744;7.358;2022-08-06T12:11:41;26.40;94.40
37310;DHT22;23195;47.744;7.358;2022-08-06T12:14:39;26.30;94.20
37310;DHT22;23195;47.744;7.358;2022-08-06T12:17:10;26.60;93.90
37310;DHT22;23195;47.744;7.358;2022-08-06T12:19:52;26.50;93.50
37310;DHT22;23195;47.744;7.358;2022-08-06T12:22:22;26.60;93.10
37310;DHT22;23195;47.744;7.358;2022-08-06T12:24:53;26.60;93.10
37310;DHT22;23195;47.744;7.358;2022-08-06T12:27:21;26.70;92.40
37310;DHT22;23195;47.744;7.358;2022-08-06T12:29:55;26.60;92.30
37310;DHT22;23195;47.744;7.358;2022-08-06T12:32:26;26.40;92.30
37310;DHT22;23195;47.744;7.358;2022-08-06T12:34:53;26.30;92.30
37310;DHT22;23195;47.744;7.358;2022-08-06T12:37:20;26.50;92.00
37310;DHT22;23195;47.744;7.358;2022-08-06T12:39:49;26.60;91.70
37310;DHT22;23195;47.744;7.358;2022-08-06T12:42:34;26.90;91.40
37310;DHT22;23195;47.744;7.358;2022-08-06T12:45:03;27.50;90.80
37310;DHT22;23195;47.744;7.358;2022-08-06T12:50:35;27.40;90.40
37310;DHT22;23195;47.744;7.358;2022-08-06T12:53:05;28.10;88.90
37310;DHT22;23195;47.744;7.358;2022-08-06T12:55:54;28.10;89.20
37310;DHT22;23195;47.744;7.358;2022-08-06T12:58:31;27.40;88.90
37310;DHT22;23195;47.744;7.358;2022-08-06T13:01:00;27.50;89.30
37310;DHT22;23195;47.744;7.358;2022-08-06T13:03:39;27.60;89.60
37310;DHT22;23195;47.744;7.358;2022-08-06T13:06:10;27.60;89.20
37310;DHT22;23195;47.744;7.358;2022-08-06T13:08:42;28.10;87.90
37310;DHT22;23195;47.744;7.358;2022-08-06T13:11:12;28.30;86.40
37310;DHT22;23195;47.744;7.358;2022-08-06T13:13:52;28.30;85.40
37310;DHT22;23195;47.744;7.358;2022-08-06T13:16:18;27.80;86.10
37310;DHT22;23195;47.744;7.358;2022-08-06T13:19:05;27.70;88.10
37310;DHT22;23195;47.744;7.358;2022-08-06T13:21:31;27.60;89.20
37310;DHT22;23195;47.744;7.358;2022-08-06T13:23:57;27.30;91.50
37310;DHT22;23195;47.744;7.358;2022-08-06T13:26:31;27.40;94.30
37310;DHT22;23195;47.744;7.358;2022-08-06T13:29:08;27.50;93.80
37310;DHT22;23195;47.744;7.358;2022-08-06T13:31:41;27.50;94.40
37310;DHT22;23195;47.744;7.358;2022-08-06T13:34:15;27.00;95.10
37310;DHT22;23195;47.744;7.358;2022-08-06T13:36:53;27.00;95.80
37310;DHT22;23195;47.744;7.358;2022-08-06T13:39:28;27.00;95.30
37310;DHT22;23195;47.744;7.358;2022-08-06T13:42:09;27.30;95.00
37310;DHT22;23195;47.744;7.358;2022-08-06T13:44:45;27.10;95.30
37310;DHT22;23195;47.744;7.358;2022-08-06T13:47:28;26.90;95.80
37310;DHT22;23195;47.744;7.358;2022-08-06T13:49:58;27.30;95.60
37310;DHT22;23195;47.744;7.358;2022-08-06T13:52:27;27.70;94.90
37310;DHT22;23195;47.744;7.358;2022-08-06T13:54:56;27.60;93.10
37310;DHT22;23195;47.744;7.358;2022-08-06T13:57:25;27.50;91.50
37310;DHT22;23195;47.744;7.358;2022-08-06T13:59:52;27.60;94.60
37310;DHT22;23195;47.744;7.358;2022-08-06T14:02:26;27.30;95.10
37310;DHT22;23195;47.744;7.358;2022-08-06T14:04:52;27.50;95.10
37310;DHT22;23195;47.744;7.358;2022-08-06T14:07:27;27.50;93.90
37310;DHT22;23195;47.744;7.358;2022-08-06T14:09:55;27.30;92.80
37310;DHT22;23195;47.744;7.358;2022-08-06T14:12:21;27.70;90.20
37310;DHT22;23195;47.744;7.358;2022-08-06T14:14:47;27.70;90.50
37310;DHT22;23195;47.744;7.358;2022-08-06T14:17:18;27.60;90.90
37310;DHT22;23195;47.744;7.358;2022-08-06T14:20:00;27.80;90.40
37310;DHT22;23195;47.744;7.358;2022-08-06T14:22:28;27.80;89.90
37310;DHT22;23195;47.744;7.358;2022-08-06T14:24:56;27.70;88.30
37310;DHT22;23195;47.744;7.358;2022-08-06T14:27:25;27.50;87.90
37310;DHT22;23195;47.744;7.358;2022-08-06T14:29:51;27.60;88.20
37310;DHT22;23195;47.744;7.358;2022-08-06T14:32:28;27.30;88.00
37310;DHT22;23195;47.744;7.358;2022-08-06T14:34:54;27.00;88.50
37310;DHT22;23195;47.744;7.358;2022-08-06T14:37:25;26.90;88.30
37310;DHT22;23195;47.744;7.358;2022-08-06T14:39:51;27.10;88.80
37310;DHT22;23195;47.744;7.358;2022-08-06T14:42:19;27.30;88.20
37310;DHT22;23195;47.744;7.358;2022-08-06T14:45:03;27.50;87.60
37310;DHT22;23195;47.744;7.358;2022-08-06T14:47:32;27.10;87.20
37310;DHT22;23195;47.744;7.358;2022-08-06T14:49:58;27.30;88.10
37310;DHT22;23195;47.744;7.358;2022-08-06T14:52:25;27.20;87.40
37310;DHT22;23195;47.744;7.358;2022-08-06T14:54:56;27.20;87.70
37310;DHT22;23195;47.744;7.358;2022-08-06T14:57:24;27.00;87.80
37310;DHT22;23195;47.744;7.358;2022-08-06T14:59:58;26.80;87.90
37310;DHT22;23195;47.744;7.358;2022-08-06T15:02:24;26.90;88.80
37310;DHT22;23195;47.744;7.358;2022-08-06T15:04:54;26.90;88.70
37310;DHT22;23195;47.744;7.358;2022-08-06T15:07:20;26.90;88.20
37310;DHT22;23195;47.744;7.358;2022-08-06T15:09:48;27.10;88.10
37310;DHT22;23195;47.744;7.358;2022-08-06T15:12:15;27.10;88.00
37310;DHT22;23195;47.744;7.358;2022-08-06T15:14:41;27.20;87.70
37310;DHT22;23195;47.744;7.358;2022-08-06T15:17:07;27.10;87.90
37310;DHT22;23195;47.744;7.358;2022-08-06T15:19:33;27.00;87.80
37310;DHT22;23195;47.744;7.358;2022-08-06T15:21:59;26.70;88.40
37310;DHT22;23195;47.744;7.358;2022-08-06T15:24:25;27.10;88.10
37310;DHT22;23195;47.744;7.358;2022-08-06T15:26:52;27.30;87.10
37310;DHT22;23195;47.744;7.358;2022-08-06T15:29:23;27.20;86.70
37310;DHT22;23195;47.744;7.358;2022-08-06T15:31:52;27.10;87.10
37310;DHT22;23195;47.744;7.358;2022-08-06T15:34:18;27.20;87.00
37310;DHT22;23195;47.744;7.358;2022-08-06T15:36:47;27.50;86.50
37310;DHT22;23195;47.744;7.358;2022-08-06T15:39:13;27.60;86.00
37310;DHT22;23195;47.744;7.358;2022-08-06T15:41:39;27.50;86.20
37310;DHT22;23195;47.744;7.358;2022-08-06T15:44:05;27.40;85.90
37310;DHT22;23195;47.744;7.358;2022-08-06T15:46:34;27.10;86.60
37310;DHT22;23195;47.744;7.358;2022-08-06T15:49:03;26.90;87.00
37310;DHT22;23195;47.744;7.358;2022-08-06T15:51:34;27.00;86.90
37310;DHT22;23195;47.744;7.358;2022-08-06T15:54:01;26.90;87.60
37310;DHT22;23195;47.744;7.358;2022-08-06T15:56:27;26.80;87.50
37310;DHT22;23195;47.744;7.358;2022-08-06T15:58:55;26.80;87.90
37310;DHT22;23195;47.744;7.358;2022-08-06T16:01:21;26.60;87.70
37310;DHT22;23195;47.744;7.358;2022-08-06T16:03:47;26.60;88.20
37310;DHT22;23195;47.744;7.358;2022-08-06T16:06:19;26.50;88.50
37310;DHT22;23195;47.744;7.358;2022-08-06T16:08:45;26.50;88.80
37310;DHT22;23195;47.744;7.358;2022-08-06T16:11:11;26.50;88.70
37310;DHT22;23195;47.744;7.358;2022-08-06T16:13:37;26.50;89.60
37310;DHT22;23195;47.744;7.358;2022-08-06T16:16:09;26.50;90.90
37310;DHT22;23195;47.744;7.358;2022-08-06T16:18:41;26.40;91.70
37310;DHT22;23195;47.744;7.358;2022-08-06T16:21:14;26.60;92.10
37310;DHT22;23195;47.744;7.358;2022-08-06T16:23:40;26.60;91.60
37310;DHT22;23195;47.744;7.358;2022-08-06T16:26:06;26.50;92.20
37310;DHT22;23195;47.744;7.358;2022-08-06T16:28:41;26.40;92.70
37310;DHT22;23195;47.744;7.358;2022-08-06T16:31:10;26.40;92.90
37310;DHT22;23195;47.744;7.358;2022-08-06T16:33:42;26.40;93.00
37310;DHT22;23195;47.744;7.358;2022-08-06T16:36:08;26.30;93.30
37310;DHT22;23195;47.744;7.358;2022-08-06T16:38:45;26.30;93.50
37310;DHT22;23195;47.744;7.358;2022-08-06T16:41:11;25.90;94.00
37310;DHT22;23195;47.744;7.358;2022-08-06T16:43:39;25.40;94.50
37310;DHT22;23195;47.744;7.358;2022-08-06T16:46:09;25.50;94.90
37310;DHT22;23195;47.744;7.358;2022-08-06T16:48:37;25.30;95.40
37310;DHT22;23195;47.744;7.358;2022-08-06T16:51:08;25.50;95.60
37310;DHT22;23195;47.744;7.358;2022-08-06T16:53:40;25.50;95.80
37310;DHT22;23195;47.744;7.358;2022-08-06T16:56:15;25.60;96.00
37310;DHT22;23195;47.744;7.358;2022-08-06T16:58:44;25.60;95.90
37310;DHT22;23195;47.744;7.358;2022-08-06T17:01:26;25.60;96.30
37310;DHT22;23195;47.744;7.358;2022-08-06T17:03:55;25.60;95.90
37310;DHT22;23195;47.744;7.358;2022-08-06T17:06:33;25.30;96.30
37310;DHT22;23195;47.744;7.358;2022-08-06T17:09:14;25.20;97.10
37310;DHT22;23195;47.744;7.358;2022-08-06T17:11:44;25.20;96.60
37310;DHT22;23195;47.744;7.358;2022-08-06T17:14:10;25.20;96.90
37310;DHT22;23195;47.744;7.358;2022-08-06T17:16:36;25.20;97.10
37310;DHT22;23195;47.744;7.358;2022-08-06T17:19:11;25.10;97.30
37310;DHT22;23195;47.744;7.358;2022-08-06T17:21:37;25.30;97.80
37310;DHT22;23195;47.744;7.358;2022-08-06T17:24:20;25.20;97.90
37310;DHT22;23195;47.744;7.358;2022-08-06T17:26:46;25.10;98.20
37310;DHT22;23195;47.744;7.358;2022-08-06T17:29:15;26.30;98.90
37310;DHT22;23195;47.744;7.358;2022-08-06T17:31:45;25.10;98.80
37310;DHT22;23195;47.744;7.358;2022-08-06T17:34:29;25.10;99.10